Aviation Digital Data Service (ADDS)

Output produced by METARs form (1112 UTC 18 June 2019)
found at http://www.aviationweather.gov/metar/data/
 
Forecast for: NVSS (PEKOA ARPT/SANTO, VU)
Text: TAF NVSS 181000Z 1812/1912 13005KT 9999 SCT022 BKN040 INTER 1812/1818 9000 -SHRA BKN018
Forecast period: 1200 UTC 18 June 2019 to 1200 UTC 19 June 2019
Forecast type: FROM: standard forecast or significant change
Winds: from the SE (130 degrees) at 6 MPH (5 knots; 2.6 m/s)
Visibility: 6 or more miles 10+ km)
Ceiling: 4000 feet AGL
Clouds: scattered clouds at 2200 feet AGL
broken clouds at 4000 feet AGL
Weather: no significant weather forecast for this period
Text:
Forecast period: 1200 to 1800 UTC 18 June 2019
Forecast type: TEMPORARY: The following changes expected for less than half the time period
Visibility: 6 miles (9 km)
Ceiling: 1800 feet AGL
Clouds: broken clouds at 1800 feet AGL
Weather: -SHRA  (light rain showers)